Terminal Aerodrome Forecast
Issued by NWS Duluth, MN

Home | Current Version | Previous Version | Text Only | Print | Product List | Glossary On
Versions: 1 2 3 4 5 6 7 8 9 10 11 12 13 14 15 16 17 18 19 20 21 22 23 24 25 26 27 28 29 30 31 32 33 34 35 36 37
957
FTUS43 KDLH 230048 AAD
TAFDLH
TAF AMD
KDLH 230048Z 2301/2324 36008KT P6SM -RA OVC007
     FM230115 36007KT 4SM -SNRA OVC007
     FM230200 01006KT 1 1/2SM -SN OVC003
     FM230500 36008KT P6SM -SN OVC007
     FM230700 35008KT P6SM BKN020
     FM231000 35007KT P6SM SCT020=

USA.gov is the U.S. government's official web portal to all federal, state and local government web resources and services.